sensor_id;sensor_type;location;lat;lon;timestamp;pressure;altitude;pressure_sealevel;temperature;humidity
62164;BME280;48149;51.132;7.178;2023-04-28T00:01:05;98409.63;;;25.67;30.60
62164;BME280;48149;51.132;7.178;2023-04-28T00:03:30;98406.38;;;25.05;31.01
62164;BME280;48149;51.132;7.178;2023-04-28T00:05:55;98401.16;;;25.00;30.21
62164;BME280;48149;51.132;7.178;2023-04-28T00:08:21;98395.22;;;25.37;30.97
62164;BME280;48149;51.132;7.178;2023-04-28T00:10:49;98397.69;;;24.91;31.07
62164;BME280;48149;51.132;7.178;2023-04-28T00:13:15;98396.13;;;24.59;30.85
62164;BME280;48149;51.132;7.178;2023-04-28T00:15:40;98398.22;;;24.31;31.44
62164;BME280;48149;51.132;7.178;2023-04-28T00:18:05;98399.91;;;25.06;30.86
62164;BME280;48149;51.132;7.178;2023-04-28T00:20:30;98389.84;;;23.80;31.92
62164;BME280;48149;51.132;7.178;2023-04-28T00:22:56;98383.66;;;26.23;29.62
62164;BME280;48149;51.132;7.178;2023-04-28T00:25:21;98382.31;;;25.48;29.53
62164;BME280;48149;51.132;7.178;2023-04-28T00:27:46;98380.13;;;24.06;31.64
62164;BME280;48149;51.132;7.178;2023-04-28T00:30:12;98365.75;;;25.29;30.19
62164;BME280;48149;51.132;7.178;2023-04-28T00:32:37;98366.56;;;24.25;31.20
62164;BME280;48149;51.132;7.178;2023-04-28T00:35:02;98364.53;;;25.52;29.82
62164;BME280;48149;51.132;7.178;2023-04-28T00:37:28;98369.22;;;25.29;29.88
62164;BME280;48149;51.132;7.178;2023-04-28T00:39:53;98357.97;;;24.93;31.39
62164;BME280;48149;51.132;7.178;2023-04-28T00:42:19;98356.09;;;24.46;31.34
62164;BME280;48149;51.132;7.178;2023-04-28T00:44:44;98355.13;;;23.22;32.55
62164;BME280;48149;51.132;7.178;2023-04-28T00:47:09;98338.69;;;23.95;33.41
62164;BME280;48149;51.132;7.178;2023-04-28T00:49:35;98340.69;;;23.89;32.78
62164;BME280;48149;51.132;7.178;2023-04-28T00:52:03;98337.72;;;23.91;33.81
62164;BME280;48149;51.132;7.178;2023-04-28T00:54:29;98337.38;;;23.40;33.78
62164;BME280;48149;51.132;7.178;2023-04-28T00:59:20;98344.69;;;24.71;33.07
62164;BME280;48149;51.132;7.178;2023-04-28T01:01:45;98337.06;;;24.56;32.76
62164;BME280;48149;51.132;7.178;2023-04-28T01:04:10;98327.28;;;24.42;33.11
62164;BME280;48149;51.132;7.178;2023-04-28T01:06:36;98332.34;;;22.89;34.46
62164;BME280;48149;51.132;7.178;2023-04-28T01:09:02;98325.84;;;23.75;33.07
62164;BME280;48149;51.132;7.178;2023-04-28T01:11:29;98334.72;;;24.54;33.34
62164;BME280;48149;51.132;7.178;2023-04-28T01:13:54;98315.09;;;23.97;32.83
62164;BME280;48149;51.132;7.178;2023-04-28T01:16:21;98317.84;;;25.27;32.14
62164;BME280;48149;51.132;7.178;2023-04-28T01:18:46;98316.88;;;24.89;32.67
62164;BME280;48149;51.132;7.178;2023-04-28T01:21:12;98322.50;;;24.22;33.00
62164;BME280;48149;51.132;7.178;2023-04-28T01:23:37;98329.22;;;24.68;33.04
62164;BME280;48149;51.132;7.178;2023-04-28T01:26:02;98334.25;;;24.13;32.95
62164;BME280;48149;51.132;7.178;2023-04-28T01:28:28;98331.63;;;23.99;34.36
62164;BME280;48149;51.132;7.178;2023-04-28T01:30:53;98329.34;;;25.36;33.25
62164;BME280;48149;51.132;7.178;2023-04-28T01:33:20;98331.66;;;25.89;31.53
62164;BME280;48149;51.132;7.178;2023-04-28T01:35:45;98338.84;;;24.69;33.88
62164;BME280;48149;51.132;7.178;2023-04-28T01:38:11;98337.94;;;24.73;35.40
62164;BME280;48149;51.132;7.178;2023-04-28T01:40:36;98340.69;;;24.12;35.79
62164;BME280;48149;51.132;7.178;2023-04-28T01:43:01;98339.00;;;24.55;35.96
62164;BME280;48149;51.132;7.178;2023-04-28T01:45:26;98329.53;;;24.58;35.19
62164;BME280;48149;51.132;7.178;2023-04-28T01:47:51;98338.47;;;24.45;36.80
62164;BME280;48149;51.132;7.178;2023-04-28T01:50:17;98339.44;;;23.65;37.36
62164;BME280;48149;51.132;7.178;2023-04-28T01:52:42;98336.00;;;24.17;36.59
62164;BME280;48149;51.132;7.178;2023-04-28T01:57:42;98332.88;;;23.71;39.06
62164;BME280;48149;51.132;7.178;2023-04-28T02:00:08;98327.66;;;23.66;39.64
62164;BME280;48149;51.132;7.178;2023-04-28T02:02:33;98331.69;;;24.38;38.25
62164;BME280;48149;51.132;7.178;2023-04-28T02:04:58;98331.97;;;23.75;38.27
62164;BME280;48149;51.132;7.178;2023-04-28T02:07:23;98331.16;;;24.28;38.22
62164;BME280;48149;51.132;7.178;2023-04-28T02:09:49;98329.03;;;23.19;41.68
62164;BME280;48149;51.132;7.178;2023-04-28T02:12:14;98322.72;;;23.01;40.26
62164;BME280;48149;51.132;7.178;2023-04-28T02:14:41;98328.78;;;24.74;38.09
62164;BME280;48149;51.132;7.178;2023-04-28T02:17:07;98332.47;;;25.13;36.96
62164;BME280;48149;51.132;7.178;2023-04-28T02:19:33;98329.13;;;22.78;39.69
62164;BME280;48149;51.132;7.178;2023-04-28T02:21:58;98334.22;;;24.43;40.26
62164;BME280;48149;51.132;7.178;2023-04-28T02:24:23;98330.47;;;24.62;38.70
62164;BME280;48149;51.132;7.178;2023-04-28T02:26:48;98320.09;;;22.88;41.38
62164;BME280;48149;51.132;7.178;2023-04-28T02:29:13;98328.41;;;22.59;40.56
62164;BME280;48149;51.132;7.178;2023-04-28T02:31:39;98324.53;;;22.92;40.05
62164;BME280;48149;51.132;7.178;2023-04-28T02:34:04;98324.94;;;21.53;42.99
62164;BME280;48149;51.132;7.178;2023-04-28T02:36:30;98317.47;;;23.46;39.69
62164;BME280;48149;51.132;7.178;2023-04-28T02:38:57;98317.38;;;23.37;40.62
62164;BME280;48149;51.132;7.178;2023-04-28T02:41:22;98310.16;;;23.82;41.40
62164;BME280;48149;51.132;7.178;2023-04-28T02:43:47;98306.25;;;23.57;40.33
62164;BME280;48149;51.132;7.178;2023-04-28T02:46:12;98300.66;;;24.29;39.78
62164;BME280;48149;51.132;7.178;2023-04-28T02:48:38;98307.38;;;23.65;40.00
62164;BME280;48149;51.132;7.178;2023-04-28T02:51:04;98306.31;;;23.30;41.11
62164;BME280;48149;51.132;7.178;2023-04-28T02:53:29;98308.13;;;23.87;40.52
62164;BME280;48149;51.132;7.178;2023-04-28T02:55:55;98293.38;;;23.99;40.27
62164;BME280;48149;51.132;7.178;2023-04-28T02:58:20;98300.75;;;23.04;40.76
62164;BME280;48149;51.132;7.178;2023-04-28T03:00:46;98297.88;;;22.51;43.10
62164;BME280;48149;51.132;7.178;2023-04-28T03:03:11;98300.28;;;23.91;39.25
62164;BME280;48149;51.132;7.178;2023-04-28T03:05:37;98300.63;;;22.60;41.99
62164;BME280;48149;51.132;7.178;2023-04-28T03:08:02;98296.53;;;23.92;40.13
62164;BME280;48149;51.132;7.178;2023-04-28T03:10:27;98289.28;;;22.54;42.48
62164;BME280;48149;51.132;7.178;2023-04-28T03:12:52;98283.06;;;23.08;42.03
62164;BME280;48149;51.132;7.178;2023-04-28T03:15:18;98288.78;;;23.15;42.80
62164;BME280;48149;51.132;7.178;2023-04-28T03:17:43;98284.50;;;23.14;41.08
62164;BME280;48149;51.132;7.178;2023-04-28T03:20:08;98289.63;;;23.24;41.62
62164;BME280;48149;51.132;7.178;2023-04-28T03:24:59;98294.03;;;25.17;38.36
62164;BME280;48149;51.132;7.178;2023-04-28T03:27:25;98289.28;;;23.92;40.38
62164;BME280;48149;51.132;7.178;2023-04-28T03:29:50;98279.75;;;23.69;40.93
62164;BME280;48149;51.132;7.178;2023-04-28T03:32:15;98271.84;;;23.95;39.72
62164;BME280;48149;51.132;7.178;2023-04-28T03:34:41;98263.63;;;23.61;40.63
62164;BME280;48149;51.132;7.178;2023-04-28T03:37:06;98251.19;;;23.12;41.37
62164;BME280;48149;51.132;7.178;2023-04-28T03:39:31;98260.03;;;23.57;43.42
62164;BME280;48149;51.132;7.178;2023-04-28T03:41:56;98252.84;;;23.66;41.78
62164;BME280;48149;51.132;7.178;2023-04-28T03:44:22;98253.59;;;23.13;41.64
62164;BME280;48149;51.132;7.178;2023-04-28T03:46:47;98250.91;;;22.64;45.17
62164;BME280;48149;51.132;7.178;2023-04-28T03:49:13;98249.78;;;23.36;44.68
62164;BME280;48149;51.132;7.178;2023-04-28T03:51:38;98249.97;;;23.93;42.39
62164;BME280;48149;51.132;7.178;2023-04-28T03:54:03;98251.38;;;23.90;41.55
62164;BME280;48149;51.132;7.178;2023-04-28T03:56:28;98239.69;;;23.47;42.42
62164;BME280;48149;51.132;7.178;2023-04-28T03:58:53;98247.78;;;23.95;41.34
62164;BME280;48149;51.132;7.178;2023-04-28T04:01:19;98250.19;;;23.44;42.22
62164;BME280;48149;51.132;7.178;2023-04-28T04:03:44;98246.66;;;23.57;42.63
62164;BME280;48149;51.132;7.178;2023-04-28T04:06:09;98240.19;;;23.58;41.24
62164;BME280;48149;51.132;7.178;2023-04-28T04:08:34;98234.09;;;23.57;41.82
62164;BME280;48149;51.132;7.178;2023-04-28T04:11:00;98226.84;;;23.88;42.65
62164;BME280;48149;51.132;7.178;2023-04-28T04:13:25;98210.03;;;24.53;39.74
62164;BME280;48149;51.132;7.178;2023-04-28T04:15:50;98204.41;;;23.98;40.45
62164;BME280;48149;51.132;7.178;2023-04-28T04:18:16;98184.25;;;24.91;40.41
62164;BME280;48149;51.132;7.178;2023-04-28T04:20:42;98187.19;;;24.47;40.87
62164;BME280;48149;51.132;7.178;2023-04-28T04:23:07;98180.41;;;23.76;40.80
62164;BME280;48149;51.132;7.178;2023-04-28T04:25:32;98176.81;;;24.71;41.23
62164;BME280;48149;51.132;7.178;2023-04-28T04:27:58;98172.03;;;23.69;41.34
62164;BME280;48149;51.132;7.178;2023-04-28T04:30:23;98155.63;;;24.01;40.44
62164;BME280;48149;51.132;7.178;2023-04-28T04:32:49;98165.31;;;23.18;41.24
62164;BME280;48149;51.132;7.178;2023-04-28T04:35:14;98169.00;;;23.31;41.96
62164;BME280;48149;51.132;7.178;2023-04-28T04:37:39;98152.09;;;24.74;40.24
62164;BME280;48149;51.132;7.178;2023-04-28T04:40:05;98158.28;;;23.92;40.74
62164;BME280;48149;51.132;7.178;2023-04-28T04:42:30;98165.41;;;23.35;40.44
62164;BME280;48149;51.132;7.178;2023-04-28T04:44:56;98183.47;;;23.61;39.57
62164;BME280;48149;51.132;7.178;2023-04-28T04:47:21;98197.13;;;25.15;39.27
62164;BME280;48149;51.132;7.178;2023-04-28T04:49:47;98189.72;;;23.25;42.99
62164;BME280;48149;51.132;7.178;2023-04-28T04:52:12;98181.50;;;22.42;44.46
62164;BME280;48149;51.132;7.178;2023-04-28T04:54:38;98190.56;;;23.34;42.22
62164;BME280;48149;51.132;7.178;2023-04-28T04:57:03;98180.66;;;22.32;44.81
62164;BME280;48149;51.132;7.178;2023-04-28T04:59:28;98188.00;;;23.52;42.95
62164;BME280;48149;51.132;7.178;2023-04-28T05:01:53;98186.31;;;23.64;42.39
62164;BME280;48149;51.132;7.178;2023-04-28T05:04:19;98185.06;;;23.62;43.47
62164;BME280;48149;51.132;7.178;2023-04-28T05:06:44;98183.38;;;22.41;44.86
62164;BME280;48149;51.132;7.178;2023-04-28T05:09:09;98181.59;;;22.86;44.03
62164;BME280;48149;51.132;7.178;2023-04-28T05:11:35;98178.81;;;23.66;43.15
62164;BME280;48149;51.132;7.178;2023-04-28T05:14:00;98179.91;;;21.91;47.82
62164;BME280;48149;51.132;7.178;2023-04-28T05:16:25;98177.03;;;23.62;44.05
62164;BME280;48149;51.132;7.178;2023-04-28T05:18:51;98170.59;;;21.75;47.61
62164;BME280;48149;51.132;7.178;2023-04-28T05:21:16;98167.84;;;22.07;46.70
62164;BME280;48149;51.132;7.178;2023-04-28T05:23:42;98174.63;;;21.72;47.25
62164;BME280;48149;51.132;7.178;2023-04-28T05:26:07;98162.38;;;22.62;43.48
62164;BME280;48149;51.132;7.178;2023-04-28T05:28:32;98164.22;;;23.81;42.56
62164;BME280;48149;51.132;7.178;2023-04-28T05:30:58;98164.38;;;22.92;44.47
62164;BME280;48149;51.132;7.178;2023-04-28T05:33:23;98158.59;;;23.91;43.18
62164;BME280;48149;51.132;7.178;2023-04-28T05:35:48;98154.63;;;21.89;48.89
62164;BME280;48149;51.132;7.178;2023-04-28T05:38:13;98166.13;;;22.74;47.18
62164;BME280;48149;51.132;7.178;2023-04-28T05:40:39;98170.63;;;22.52;47.47
62164;BME280;48149;51.132;7.178;2023-04-28T05:43:04;98170.50;;;22.70;47.33
62164;BME280;48149;51.132;7.178;2023-04-28T05:45:29;98175.88;;;24.76;41.78
62164;BME280;48149;51.132;7.178;2023-04-28T05:47:55;98174.19;;;24.06;41.44
62164;BME280;48149;51.132;7.178;2023-04-28T05:50:20;98172.41;;;24.32;41.73
62164;BME280;48149;51.132;7.178;2023-04-28T05:52:45;98170.88;;;23.53;42.66
62164;BME280;48149;51.132;7.178;2023-04-28T05:55:11;98176.91;;;25.35;40.76
62164;BME280;48149;51.132;7.178;2023-04-28T05:57:36;98172.50;;;23.62;44.24
62164;BME280;48149;51.132;7.178;2023-04-28T06:00:02;98174.00;;;25.02;41.52
62164;BME280;48149;51.132;7.178;2023-04-28T06:02:27;98172.69;;;24.39;43.34
62164;BME280;48149;51.132;7.178;2023-04-28T06:04:52;98174.31;;;23.45;43.74
62164;BME280;48149;51.132;7.178;2023-04-28T06:07:18;98153.69;;;24.32;41.44
62164;BME280;48149;51.132;7.178;2023-04-28T06:09:43;98154.03;;;23.52;44.10
62164;BME280;48149;51.132;7.178;2023-04-28T06:12:09;98160.97;;;25.38;41.44
62164;BME280;48149;51.132;7.178;2023-04-28T06:14:34;98158.97;;;25.27;40.40
62164;BME280;48149;51.132;7.178;2023-04-28T06:17:01;98156.41;;;25.39;40.43
62164;BME280;48149;51.132;7.178;2023-04-28T06:19:27;98148.31;;;24.32;43.74
62164;BME280;48149;51.132;7.178;2023-04-28T06:21:52;98144.44;;;25.28;42.27
62164;BME280;48149;51.132;7.178;2023-04-28T06:24:17;98155.69;;;25.21;40.91
62164;BME280;48149;51.132;7.178;2023-04-28T06:26:42;98157.09;;;26.03;40.84
62164;BME280;48149;51.132;7.178;2023-04-28T06:29:08;98150.63;;;25.75;40.41
62164;BME280;48149;51.132;7.178;2023-04-28T06:31:33;98145.03;;;26.38;39.12
62164;BME280;48149;51.132;7.178;2023-04-28T06:33:58;98142.50;;;24.90;41.42
62164;BME280;48149;51.132;7.178;2023-04-28T06:36:23;98140.59;;;26.22;42.51
62164;BME280;48149;51.132;7.178;2023-04-28T06:38:49;98147.91;;;26.13;39.47
62164;BME280;48149;51.132;7.178;2023-04-28T06:41:14;98141.88;;;24.85;44.17
62164;BME280;48149;51.132;7.178;2023-04-28T06:43:39;98138.69;;;25.00;43.79
62164;BME280;48149;51.132;7.178;2023-04-28T06:46:05;98149.88;;;25.66;42.02
62164;BME280;48149;51.132;7.178;2023-04-28T06:48:30;98150.03;;;24.97;41.82
62164;BME280;48149;51.132;7.178;2023-04-28T06:50:55;98154.78;;;24.49;43.54
62164;BME280;48149;51.132;7.178;2023-04-28T06:53:20;98157.72;;;25.24;41.73
62164;BME280;48149;51.132;7.178;2023-04-28T06:55:45;98152.13;;;25.93;41.93
62164;BME280;48149;51.132;7.178;2023-04-28T06:58:11;98150.34;;;26.26;38.58
62164;BME280;48149;51.132;7.178;2023-04-28T07:00:36;98153.59;;;24.07;43.56
62164;BME280;48149;51.132;7.178;2023-04-28T07:03:02;98155.38;;;25.14;42.68
62164;BME280;48149;51.132;7.178;2023-04-28T07:05:28;98159.19;;;26.27;41.27
62164;BME280;48149;51.132;7.178;2023-04-28T07:07:54;98144.44;;;25.83;40.26
62164;BME280;48149;51.132;7.178;2023-04-28T07:10:19;98151.94;;;25.60;40.00
62164;BME280;48149;51.132;7.178;2023-04-28T07:12:44;98159.31;;;26.72;39.39
62164;BME280;48149;51.132;7.178;2023-04-28T07:15:09;98147.03;;;26.00;40.05
62164;BME280;48149;51.132;7.178;2023-04-28T07:17:35;98145.69;;;25.39;42.51
62164;BME280;48149;51.132;7.178;2023-04-28T07:20:00;98135.53;;;24.21;44.99
62164;BME280;48149;51.132;7.178;2023-04-28T07:22:25;98145.47;;;25.61;40.46
62164;BME280;48149;51.132;7.178;2023-04-28T07:24:51;98159.38;;;26.13;40.52
62164;BME280;48149;51.132;7.178;2023-04-28T07:27:16;98154.81;;;25.46;41.52
62164;BME280;48149;51.132;7.178;2023-04-28T07:29:41;98149.94;;;28.28;36.96
62164;BME280;48149;51.132;7.178;2023-04-28T07:32:07;98159.72;;;27.15;38.10
62164;BME280;48149;51.132;7.178;2023-04-28T07:34:34;98165.88;;;27.85;37.74
62164;BME280;48149;51.132;7.178;2023-04-28T07:36:59;98168.59;;;27.61;38.46
62164;BME280;48149;51.132;7.178;2023-04-28T07:39:25;98160.94;;;27.50;37.33
62164;BME280;48149;51.132;7.178;2023-04-28T07:41:50;98150.81;;;26.28;38.89
62164;BME280;48149;51.132;7.178;2023-04-28T07:44:16;98156.34;;;25.94;41.73
62164;BME280;48149;51.132;7.178;2023-04-28T07:46:41;98165.47;;;26.72;39.19
62164;BME280;48149;51.132;7.178;2023-04-28T07:49:06;98178.19;;;27.62;38.01
62164;BME280;48149;51.132;7.178;2023-04-28T07:51:32;98170.44;;;29.56;35.26
62164;BME280;48149;51.132;7.178;2023-04-28T07:53:57;98171.75;;;28.11;36.14
62164;BME280;48149;51.132;7.178;2023-04-28T07:56:23;98165.09;;;26.82;38.77
62164;BME280;48149;51.132;7.178;2023-04-28T07:58:48;98174.41;;;27.75;36.72
62164;BME280;48149;51.132;7.178;2023-04-28T08:01:14;98164.41;;;28.76;36.34
62164;BME280;48149;51.132;7.178;2023-04-28T08:03:39;98171.13;;;30.70;33.63
62164;BME280;48149;51.132;7.178;2023-04-28T08:06:05;98167.75;;;28.85;33.66
62164;BME280;48149;51.132;7.178;2023-04-28T08:08:31;98169.78;;;28.36;37.05
62164;BME280;48149;51.132;7.178;2023-04-28T08:10:56;98166.88;;;27.23;37.87
62164;BME280;48149;51.132;7.178;2023-04-28T08:13:22;98170.88;;;28.47;35.36
62164;BME280;48149;51.132;7.178;2023-04-28T08:15:48;98175.19;;;27.87;37.46
62164;BME280;48149;51.132;7.178;2023-04-28T08:18:13;98170.06;;;28.71;35.32
62164;BME280;48149;51.132;7.178;2023-04-28T08:20:38;98175.53;;;29.02;35.87
62164;BME280;48149;51.132;7.178;2023-04-28T08:23:04;98176.75;;;27.88;38.25
62164;BME280;48149;51.132;7.178;2023-04-28T08:25:29;98167.78;;;27.15;38.80
62164;BME280;48149;51.132;7.178;2023-04-28T08:27:55;98163.34;;;30.14;34.88
62164;BME280;48149;51.132;7.178;2023-04-28T08:30:20;98173.66;;;29.18;36.32
62164;BME280;48149;51.132;7.178;2023-04-28T08:32:46;98174.38;;;30.25;34.15
62164;BME280;48149;51.132;7.178;2023-04-28T08:35:11;98181.19;;;28.57;35.99
62164;BME280;48149;51.132;7.178;2023-04-28T08:37:37;98177.44;;;28.22;37.21
62164;BME280;48149;51.132;7.178;2023-04-28T08:40:02;98173.91;;;29.72;35.92
62164;BME280;48149;51.132;7.178;2023-04-28T08:42:33;98178.44;;;28.29;37.78
62164;BME280;48149;51.132;7.178;2023-04-28T08:44:58;98179.81;;;28.23;38.32
62164;BME280;48149;51.132;7.178;2023-04-28T08:47:41;98172.59;;;28.03;39.28
62164;BME280;48149;51.132;7.178;2023-04-28T08:50:10;98174.88;;;29.21;38.17
62164;BME280;48149;51.132;7.178;2023-04-28T08:52:36;98166.41;;;29.06;37.08
62164;BME280;48149;51.132;7.178;2023-04-28T08:55:05;98159.97;;;28.68;38.59
62164;BME280;48149;51.132;7.178;2023-04-28T08:57:36;98156.66;;;29.30;37.74
62164;BME280;48149;51.132;7.178;2023-04-28T09:00:03;98158.78;;;29.08;36.30
62164;BME280;48149;51.132;7.178;2023-04-28T09:02:28;98157.56;;;29.49;36.52
62164;BME280;48149;51.132;7.178;2023-04-28T09:04:53;98163.19;;;27.73;39.28
62164;BME280;48149;51.132;7.178;2023-04-28T09:07:19;98169.03;;;29.62;38.27
62164;BME280;48149;51.132;7.178;2023-04-28T09:09:44;98175.94;;;30.60;34.02
62164;BME280;48149;51.132;7.178;2023-04-28T09:12:10;98174.13;;;31.94;34.91
62164;BME280;48149;51.132;7.178;2023-04-28T09:14:36;98171.59;;;31.55;33.67
62164;BME280;48149;51.132;7.178;2023-04-28T09:17:02;98169.00;;;30.98;36.75
62164;BME280;48149;51.132;7.178;2023-04-28T09:19:34;98175.34;;;28.95;39.35
62164;BME280;48149;51.132;7.178;2023-04-28T09:22:02;98175.22;;;29.47;38.42
62164;BME280;48149;51.132;7.178;2023-04-28T09:24:30;98178.78;;;29.82;38.33
62164;BME280;48149;51.132;7.178;2023-04-28T09:26:56;98183.66;;;29.92;35.60
62164;BME280;48149;51.132;7.178;2023-04-28T09:29:22;98171.56;;;29.11;39.26
62164;BME280;48149;51.132;7.178;2023-04-28T09:31:47;98173.72;;;29.81;36.68
62164;BME280;48149;51.132;7.178;2023-04-28T09:34:12;98175.91;;;29.59;37.39
62164;BME280;48149;51.132;7.178;2023-04-28T09:36:38;98174.53;;;29.66;38.31
62164;BME280;48149;51.132;7.178;2023-04-28T09:39:03;98177.28;;;30.35;36.60
62164;BME280;48149;51.132;7.178;2023-04-28T09:41:35;98173.22;;;31.18;35.52
62164;BME280;48149;51.132;7.178;2023-04-28T09:46:35;98171.97;;;29.26;38.14
62164;BME280;48149;51.132;7.178;2023-04-28T09:49:00;98175.47;;;29.89;37.46
62164;BME280;48149;51.132;7.178;2023-04-28T09:51:26;98170.59;;;28.36;40.55
62164;BME280;48149;51.132;7.178;2023-04-28T09:53:52;98158.16;;;30.79;37.60
62164;BME280;48149;51.132;7.178;2023-04-28T09:56:18;98168.47;;;30.73;38.18
62164;BME280;48149;51.132;7.178;2023-04-28T09:58:45;98158.25;;;30.63;36.83
62164;BME280;48149;51.132;7.178;2023-04-28T10:01:12;98165.47;;;29.42;38.56
62164;BME280;48149;51.132;7.178;2023-04-28T10:03:37;98160.50;;;30.42;37.88
62164;BME280;48149;51.132;7.178;2023-04-28T10:06:03;98158.44;;;30.54;37.88
62164;BME280;48149;51.132;7.178;2023-04-28T10:08:29;98159.63;;;29.72;39.83
62164;BME280;48149;51.132;7.178;2023-04-28T10:10:54;98162.75;;;29.58;39.52
62164;BME280;48149;51.132;7.178;2023-04-28T10:13:21;98160.03;;;30.05;38.60
62164;BME280;48149;51.132;7.178;2023-04-28T10:15:47;98150.41;;;30.23;37.91
62164;BME280;48149;51.132;7.178;2023-04-28T10:18:13;98159.63;;;31.56;36.79
62164;BME280;48149;51.132;7.178;2023-04-28T10:20:45;98161.91;;;29.85;39.63
62164;BME280;48149;51.132;7.178;2023-04-28T10:25:56;98167.22;;;28.15;44.32
62164;BME280;48149;51.132;7.178;2023-04-28T10:28:23;98159.56;;;28.41;42.80
62164;BME280;48149;51.132;7.178;2023-04-28T10:31:09;98162.78;;;28.47;42.46
62164;BME280;48149;51.132;7.178;2023-04-28T10:33:38;98164.34;;;28.60;43.83
62164;BME280;48149;51.132;7.178;2023-04-28T10:36:04;98161.13;;;29.10;43.60
62164;BME280;48149;51.132;7.178;2023-04-28T10:38:30;98164.69;;;30.58;38.86
62164;BME280;48149;51.132;7.178;2023-04-28T10:40:55;98158.03;;;30.52;39.42
62164;BME280;48149;51.132;7.178;2023-04-28T10:43:37;98154.97;;;30.19;41.71
62164;BME280;48149;51.132;7.178;2023-04-28T10:46:06;98161.13;;;32.03;36.76
62164;BME280;48149;51.132;7.178;2023-04-28T10:56:17;98155.50;;;31.43;37.61
62164;BME280;48149;51.132;7.178;2023-04-28T10:58:52;98161.78;;;28.51;43.11
62164;BME280;48149;51.132;7.178;2023-04-28T11:06:18;98162.94;;;29.06;44.07
62164;BME280;48149;51.132;7.178;2023-04-28T11:08:54;98160.94;;;29.19;43.92
62164;BME280;48149;51.132;7.178;2023-04-28T11:13:46;98147.63;;;30.20;42.27
62164;BME280;48149;51.132;7.178;2023-04-28T11:16:15;98153.69;;;29.82;42.42
62164;BME280;48149;51.132;7.178;2023-04-28T11:18:48;98149.34;;;28.87;46.85
62164;BME280;48149;51.132;7.178;2023-04-28T11:21:19;98145.00;;;30.58;42.86
62164;BME280;48149;51.132;7.178;2023-04-28T11:23:44;98147.91;;;28.37;44.96
62164;BME280;48149;51.132;7.178;2023-04-28T11:26:10;98137.53;;;28.24;46.60
62164;BME280;48149;51.132;7.178;2023-04-28T11:28:35;98145.72;;;29.10;45.45
62164;BME280;48149;51.132;7.178;2023-04-28T11:31:14;98144.28;;;30.07;44.88
62164;BME280;48149;51.132;7.178;2023-04-28T11:33:50;98152.22;;;31.53;40.69
62164;BME280;48149;51.132;7.178;2023-04-28T11:36:23;98150.06;;;29.43;44.36
62164;BME280;48149;51.132;7.178;2023-04-28T11:38:49;98143.97;;;29.46;45.97
62164;BME280;48149;51.132;7.178;2023-04-28T11:41:15;98150.97;;;31.05;42.45
62164;BME280;48149;51.132;7.178;2023-04-28T11:43:40;98148.66;;;29.33;46.82
62164;BME280;48149;51.132;7.178;2023-04-28T11:46:08;98141.41;;;30.70;42.41
62164;BME280;48149;51.132;7.178;2023-04-28T11:48:34;98142.41;;;31.68;40.14
62164;BME280;48149;51.132;7.178;2023-04-28T11:50:59;98137.50;;;28.64;46.72
62164;BME280;48149;51.132;7.178;2023-04-28T11:53:41;98134.75;;;30.48;42.86
62164;BME280;48149;51.132;7.178;2023-04-28T11:56:07;98151.66;;;31.22;41.74
62164;BME280;48149;51.132;7.178;2023-04-28T11:58:32;98140.69;;;32.61;38.54
62164;BME280;48149;51.132;7.178;2023-04-28T12:01:10;98150.75;;;31.37;41.02
62164;BME280;48149;51.132;7.178;2023-04-28T12:03:42;98151.44;;;32.02;38.52
62164;BME280;48149;51.132;7.178;2023-04-28T12:06:07;98142.00;;;31.66;39.70
62164;BME280;48149;51.132;7.178;2023-04-28T12:08:33;98139.44;;;32.89;38.14
62164;BME280;48149;51.132;7.178;2023-04-28T12:11:07;98138.38;;;33.81;36.69
62164;BME280;48149;51.132;7.178;2023-04-28T12:13:37;98137.16;;;33.71;37.03
62164;BME280;48149;51.132;7.178;2023-04-28T12:16:03;98141.41;;;32.92;38.44
62164;BME280;48149;51.132;7.178;2023-04-28T12:18:32;98138.53;;;31.24;40.76
62164;BME280;48149;51.132;7.178;2023-04-28T12:20:57;98140.66;;;30.92;42.88
62164;BME280;48149;51.132;7.178;2023-04-28T12:25:55;98143.16;;;30.43;43.50
62164;BME280;48149;51.132;7.178;2023-04-28T12:28:21;98147.78;;;31.91;39.98
62164;BME280;48149;51.132;7.178;2023-04-28T12:30:46;98141.91;;;32.67;39.73
62164;BME280;48149;51.132;7.178;2023-04-28T12:33:21;98144.50;;;32.94;38.91
62164;BME280;48149;51.132;7.178;2023-04-28T12:35:47;98144.59;;;32.08;39.32
62164;BME280;48149;51.132;7.178;2023-04-28T12:38:13;98141.44;;;34.34;36.90
62164;BME280;48149;51.132;7.178;2023-04-28T12:40:39;98140.19;;;32.00;38.74
62164;BME280;48149;51.132;7.178;2023-04-28T12:43:05;98128.84;;;33.57;36.99
62164;BME280;48149;51.132;7.178;2023-04-28T12:45:30;98131.38;;;34.38;36.46
62164;BME280;48149;51.132;7.178;2023-04-28T12:47:57;98130.81;;;38.08;30.92
62164;BME280;48149;51.132;7.178;2023-04-28T12:50:22;98125.22;;;36.71;31.46
62164;BME280;48149;51.132;7.178;2023-04-28T12:52:48;98127.75;;;35.24;34.45
62164;BME280;48149;51.132;7.178;2023-04-28T12:55:13;98121.56;;;35.66;33.36
62164;BME280;48149;51.132;7.178;2023-04-28T12:57:39;98117.97;;;38.05;30.22
62164;BME280;48149;51.132;7.178;2023-04-28T13:00:04;98116.25;;;37.80;30.04
62164;BME280;48149;51.132;7.178;2023-04-28T13:02:30;98118.06;;;36.91;31.48
62164;BME280;48149;51.132;7.178;2023-04-28T13:04:55;98121.81;;;36.42;31.67
62164;BME280;48149;51.132;7.178;2023-04-28T13:07:20;98119.16;;;36.00;32.74
62164;BME280;48149;51.132;7.178;2023-04-28T13:09:46;98120.38;;;35.14;34.37
62164;BME280;48149;51.132;7.178;2023-04-28T13:12:11;98118.06;;;35.62;32.26
62164;BME280;48149;51.132;7.178;2023-04-28T13:14:37;98114.56;;;34.15;35.01
62164;BME280;48149;51.132;7.178;2023-04-28T13:17:03;98108.22;;;34.87;34.89
62164;BME280;48149;51.132;7.178;2023-04-28T13:19:28;98107.53;;;35.53;34.12
62164;BME280;48149;51.132;7.178;2023-04-28T13:21:55;98100.28;;;34.32;35.38
62164;BME280;48149;51.132;7.178;2023-04-28T13:24:20;98105.22;;;35.23;34.33